createdAt,value
2018-09-07T00:00:59.920Z,96.70
2018-09-07T00:03:28.721Z,96.80
2018-09-07T00:05:57.119Z,96.90
2018-09-07T00:08:25.755Z,97.10
2018-09-07T00:10:53.884Z,97.20
2018-09-07T00:13:22.009Z,97.50
2018-09-07T00:15:50.147Z,98.20
2018-09-07T00:18:18.580Z,98.00
2018-09-07T00:20:46.855Z,98.50
2018-09-07T00:23:14.987Z,98.50
2018-09-07T00:25:43.139Z,98.90
2018-09-07T00:28:11.293Z,98.80
2018-09-07T00:30:39.415Z,98.70
2018-09-07T00:33:07.563Z,98.80
2018-09-07T00:35:35.677Z,99.30
2018-09-07T00:38:03.820Z,99.30
2018-09-07T00:40:31.934Z,98.80
2018-09-07T00:43:00.072Z,99.20
2018-09-07T00:45:28.186Z,98.90
2018-09-07T00:47:56.329Z,98.70
2018-09-07T00:50:31.129Z,98.80
2018-09-07T00:52:59.257Z,99.00
2018-09-07T00:55:27.351Z,98.80
2018-09-07T00:57:55.476Z,98.50
2018-09-07T01:00:24.401Z,98.10
2018-09-07T01:02:52.528Z,97.80
2018-09-07T01:05:20.637Z,97.50
2018-09-07T01:07:48.746Z,97.50
2018-09-07T01:10:16.851Z,97.60
2018-09-07T01:12:44.972Z,98.60
2018-09-07T01:15:13.138Z,99.70
2018-09-07T01:17:41.208Z,99.90
2018-09-07T01:20:09.287Z,99.90
2018-09-07T01:22:37.404Z,99.90
2018-09-07T01:25:05.497Z,99.90
2018-09-07T01:27:33.607Z,99.90
2018-09-07T01:30:01.720Z,99.90
2018-09-07T01:32:29.864Z,99.90
2018-09-07T01:34:57.978Z,99.90
2018-09-07T01:37:31.647Z,99.30
2018-09-07T01:39:59.760Z,99.90
2018-09-07T01:42:27.862Z,99.10
2018-09-07T01:44:55.950Z,98.80
2018-09-07T01:47:24.044Z,98.60
2018-09-07T01:49:52.171Z,98.70
2018-09-07T01:52:20.261Z,98.60
2018-09-07T01:54:48.373Z,98.70
2018-09-07T01:57:16.472Z,99.10
2018-09-07T01:59:44.584Z,99.20
2018-09-07T02:02:12.688Z,99.60
2018-09-07T02:04:40.794Z,99.80
2018-09-07T02:07:08.873Z,99.90
2018-09-07T02:09:36.982Z,99.90
2018-09-07T02:12:05.077Z,99.90
2018-09-07T02:14:33.188Z,99.90
2018-09-07T02:17:01.665Z,99.90
2018-09-07T02:19:29.880Z,99.90
2018-09-07T02:22:04.692Z,99.90
2018-09-07T02:24:32.791Z,99.90
2018-09-07T02:27:00.888Z,99.90
2018-09-07T02:29:28.996Z,99.90
2018-09-07T02:31:57.092Z,99.90
2018-09-07T02:34:25.206Z,99.90
2018-09-07T02:36:54.333Z,99.90
2018-09-07T02:39:22.423Z,99.90
2018-09-07T02:41:50.519Z,99.90
2018-09-07T02:44:18.626Z,99.90
2018-09-07T02:46:46.731Z,99.90
2018-09-07T02:49:14.843Z,99.60
2018-09-07T02:51:42.944Z,99.60
2018-09-07T02:54:11.067Z,99.30
2018-09-07T02:56:39.164Z,99.50
2018-09-07T02:59:07.257Z,99.50
2018-09-07T03:01:35.358Z,99.70
2018-09-07T03:04:03.463Z,99.60
2018-09-07T03:06:31.572Z,99.60
2018-09-07T03:08:59.659Z,99.40
2018-09-07T03:11:27.769Z,99.70
2018-09-07T03:13:55.863Z,99.90
2018-09-07T03:16:23.992Z,99.90
2018-09-07T03:18:52.116Z,99.90
2018-09-07T03:21:20.240Z,99.90
2018-09-07T03:23:48.347Z,99.90
2018-09-07T03:26:16.448Z,99.90
2018-09-07T03:28:44.547Z,99.90
2018-09-07T03:31:12.659Z,99.90
2018-09-07T03:33:40.771Z,99.90
2018-09-07T03:36:08.888Z,99.90
2018-09-07T03:38:36.983Z,99.90
2018-09-07T03:41:05.096Z,99.90
2018-09-07T03:43:33.161Z,99.90
2018-09-07T03:46:01.293Z,99.90
2018-09-07T03:48:29.392Z,99.90
2018-09-07T03:50:57.504Z,99.90
2018-09-07T03:53:25.604Z,99.90
2018-09-07T03:55:53.772Z,99.90
2018-09-07T03:58:21.921Z,99.90
2018-09-07T04:00:50.250Z,99.90
2018-09-07T04:03:18.370Z,99.90
2018-09-07T04:05:46.551Z,99.90
2018-09-07T04:08:14.672Z,99.90
2018-09-07T04:10:42.808Z,99.90
2018-09-07T04:13:10.944Z,99.90
2018-09-07T04:15:39.089Z,99.90
2018-09-07T04:18:07.871Z,99.90
2018-09-07T04:20:36.178Z,99.90
2018-09-07T04:23:04.296Z,99.80
2018-09-07T04:25:32.531Z,99.40
2018-09-07T04:28:00.660Z,99.60
2018-09-07T04:30:28.782Z,99.70
2018-09-07T04:32:56.931Z,99.80
2018-09-07T04:35:25.085Z,99.90
2018-09-07T04:37:53.231Z,99.70
2018-09-07T04:40:21.379Z,99.90
2018-09-07T04:42:49.509Z,99.90
2018-09-07T04:45:18.011Z,99.90
2018-09-07T04:47:46.724Z,99.90
2018-09-07T04:50:15.098Z,99.90
2018-09-07T04:52:43.649Z,99.90
2018-09-07T04:55:11.756Z,99.90
2018-09-07T04:57:39.867Z,99.90
2018-09-07T05:00:08.307Z,99.90
2018-09-07T05:02:37.187Z,99.90
2018-09-07T05:05:05.420Z,99.90
2018-09-07T05:07:33.768Z,99.90
2018-09-07T05:10:01.995Z,99.90
2018-09-07T05:12:30.069Z,99.80
2018-09-07T05:14:58.165Z,99.90
2018-09-07T05:17:26.348Z,99.80
2018-09-07T05:19:56.022Z,99.50
2018-09-07T05:22:24.351Z,99.60
2018-09-07T05:24:52.482Z,99.60
2018-09-07T05:27:20.587Z,99.80
2018-09-07T05:29:48.693Z,99.70
2018-09-07T05:32:17.264Z,99.60
2018-09-07T05:34:45.360Z,99.80
2018-09-07T05:37:13.454Z,99.70
2018-09-07T05:39:41.557Z,99.90
2018-09-07T05:42:09.680Z,99.80
2018-09-07T05:44:37.777Z,99.60
2018-09-07T05:47:05.888Z,99.80
2018-09-07T05:49:33.975Z,99.90
2018-09-07T05:52:02.071Z,99.90
2018-09-07T05:54:30.170Z,99.60
2018-09-07T05:56:58.261Z,99.60
2018-09-07T05:59:26.393Z,99.70
2018-09-07T06:01:54.475Z,99.50
2018-09-07T06:04:22.616Z,99.40
2018-09-07T06:06:50.704Z,99.70
2018-09-07T06:09:18.816Z,99.80
2018-09-07T06:11:46.892Z,99.90
2018-09-07T06:14:15.004Z,99.50
2018-09-07T06:16:43.092Z,99.70
2018-09-07T06:19:11.195Z,99.70
2018-09-07T06:21:39.293Z,99.50
2018-09-07T06:24:07.411Z,99.50
2018-09-07T06:26:35.506Z,98.20
2018-09-07T06:29:03.597Z,98.00
2018-09-07T06:31:32.023Z,97.90
2018-09-07T06:34:00.320Z,95.90
2018-09-07T06:36:28.485Z,95.30
2018-09-07T06:38:56.647Z,94.90
2018-09-07T06:41:24.693Z,94.80
2018-09-07T06:43:52.808Z,95.60
2018-09-07T06:46:20.908Z,95.60
2018-09-07T06:48:49.028Z,95.80
2018-09-07T06:51:17.119Z,96.40
2018-09-07T06:53:45.223Z,96.20
2018-09-07T06:56:13.371Z,96.10
2018-09-07T06:58:41.488Z,95.60
2018-09-07T07:01:09.631Z,95.10
2018-09-07T07:03:37.763Z,94.80
2018-09-07T07:06:05.882Z,95.40
2018-09-07T07:08:34.106Z,95.00
2018-09-07T07:11:02.120Z,95.30
2018-09-07T07:13:30.227Z,94.80
2018-09-07T07:15:58.358Z,95.50
2018-09-07T07:18:26.464Z,95.30
2018-09-07T07:20:54.603Z,94.90
2018-09-07T07:23:22.736Z,94.80
2018-09-07T07:25:50.876Z,93.70
2018-09-07T07:28:18.992Z,93.60
2018-09-07T07:30:47.132Z,93.20
2018-09-07T07:33:15.247Z,92.80
2018-09-07T07:35:43.382Z,92.10
2018-09-07T07:38:18.012Z,91.70
2018-09-07T07:40:46.129Z,91.50
2018-09-07T07:43:14.241Z,91.70
2018-09-07T07:45:42.370Z,91.50
2018-09-07T07:48:10.528Z,91.50
2018-09-07T07:50:38.643Z,91.10
2018-09-07T07:53:06.756Z,90.60
2018-09-07T07:55:34.887Z,90.30
2018-09-07T07:58:03.016Z,90.30
2018-09-07T08:00:31.132Z,91.70
2018-09-07T08:02:59.365Z,91.00
2018-09-07T08:05:27.483Z,90.80
2018-09-07T08:07:55.616Z,91.80
2018-09-07T08:10:23.751Z,90.90
2018-09-07T08:12:51.885Z,90.60
2018-09-07T08:15:19.985Z,90.30
2018-09-07T08:17:48.113Z,90.20
2018-09-07T08:20:16.217Z,90.30
2018-09-07T08:22:44.348Z,90.30
2018-09-07T08:25:12.481Z,90.00
2018-09-07T08:27:40.608Z,90.80
2018-09-07T08:30:08.751Z,91.60
2018-09-07T08:32:36.986Z,92.90
2018-09-07T08:35:04.993Z,93.40
2018-09-07T08:37:33.160Z,93.40
2018-09-07T08:40:01.264Z,93.00
2018-09-07T08:42:29.378Z,93.30
2018-09-07T08:44:57.481Z,93.60
2018-09-07T08:47:25.612Z,93.10
2018-09-07T08:49:53.731Z,93.70
2018-09-07T08:52:22.263Z,92.50
2018-09-07T08:54:50.384Z,93.40
2018-09-07T08:57:19.776Z,93.80
2018-09-07T08:59:47.977Z,95.30
2018-09-07T09:02:16.860Z,95.70
2018-09-07T09:04:45.164Z,95.40
2018-09-07T09:07:13.289Z,95.40
2018-09-07T09:09:41.404Z,96.70
2018-09-07T09:12:09.911Z,97.30
2018-09-07T09:14:38.225Z,97.70
2018-09-07T09:17:06.608Z,99.20
2018-09-07T09:19:34.795Z,98.50
2018-09-07T09:22:03.059Z,98.40
2018-09-07T09:24:31.365Z,99.00
2018-09-07T09:26:59.259Z,99.30
2018-09-07T09:29:27.364Z,99.10
2018-09-07T09:31:55.459Z,98.70
2018-09-07T09:34:23.562Z,99.50
2018-09-07T09:36:51.645Z,99.90
2018-09-07T09:40:23.104Z,99.90
2018-09-07T09:42:51.201Z,99.70
2018-09-07T09:45:19.317Z,99.90
2018-09-07T09:47:47.401Z,99.90
2018-09-07T09:50:15.523Z,99.90
2018-09-07T09:52:43.664Z,99.90
2018-09-07T09:55:11.751Z,99.90
2018-09-07T09:57:39.839Z,99.90
2018-09-07T10:00:11.034Z,99.90
2018-09-07T10:02:44.855Z,99.90
2018-09-07T10:05:16.337Z,99.90
2018-09-07T10:07:45.035Z,99.90
2018-09-07T10:10:13.512Z,99.90
2018-09-07T10:12:41.670Z,99.90
2018-09-07T10:15:09.802Z,99.90
2018-09-07T10:17:37.885Z,99.90
2018-09-07T10:20:05.997Z,99.90
2018-09-07T10:22:34.109Z,99.90
2018-09-07T10:25:02.215Z,99.90
2018-09-07T10:27:30.336Z,99.90
2018-09-07T10:29:58.454Z,99.20
2018-09-07T10:32:26.565Z,97.70
2018-09-07T10:34:54.656Z,96.60
2018-09-07T10:37:22.766Z,96.80
2018-09-07T10:39:50.856Z,96.30
2018-09-07T10:42:18.960Z,96.90
2018-09-07T10:44:47.051Z,96.10
2018-09-07T10:47:15.158Z,95.80
2018-09-07T10:49:43.250Z,95.30
2018-09-07T10:52:11.424Z,95.10
2018-09-07T10:54:39.526Z,95.60
2018-09-07T10:57:07.671Z,95.50
2018-09-07T10:59:35.918Z,97.20
2018-09-07T11:02:03.876Z,96.80
2018-09-07T11:04:32.023Z,94.50
2018-09-07T11:07:00.131Z,94.50
2018-09-07T11:09:28.230Z,92.90
2018-09-07T11:11:56.328Z,92.70
2018-09-07T11:14:24.876Z,93.70
2018-09-07T11:16:52.970Z,92.90
2018-09-07T11:19:21.080Z,92.50
2018-09-07T11:21:49.183Z,92.40
2018-09-07T11:24:17.290Z,91.80
2018-09-07T11:26:45.387Z,91.50
2018-09-07T11:29:13.643Z,91.00
2018-09-07T11:31:41.746Z,91.50
2018-09-07T11:34:09.848Z,91.90
2018-09-07T11:36:37.930Z,90.90
2018-09-07T11:39:08.006Z,91.50
2018-09-07T11:41:36.104Z,91.30
2018-09-07T11:44:04.205Z,91.00
2018-09-07T11:46:32.301Z,90.30
2018-09-07T11:49:00.411Z,89.10
2018-09-07T11:51:28.491Z,90.10
2018-09-07T11:53:56.605Z,89.60
2018-09-07T11:56:24.721Z,89.70
2018-09-07T11:58:52.837Z,89.80
2018-09-07T12:01:20.989Z,88.70
2018-09-07T12:03:49.114Z,87.90
2018-09-07T12:06:17.236Z,88.50
2018-09-07T12:08:45.360Z,87.90
2018-09-07T12:11:13.486Z,87.40
2018-09-07T12:13:41.590Z,85.40
2018-09-07T12:16:09.716Z,86.30
2018-09-07T12:18:37.827Z,86.90
2018-09-07T12:21:06.038Z,86.70
2018-09-07T12:23:34.183Z,86.80
2018-09-07T12:26:02.232Z,85.20
2018-09-07T12:28:30.359Z,85.20
2018-09-07T12:30:58.527Z,83.10
2018-09-07T12:33:26.657Z,82.60
2018-09-07T12:35:54.778Z,83.60
2018-09-07T12:38:22.904Z,83.80
2018-09-07T12:40:51.032Z,84.10
2018-09-07T12:43:19.137Z,85.60
2018-09-07T12:45:47.267Z,84.60
2018-09-07T12:48:15.388Z,85.30
2018-09-07T12:50:43.526Z,85.70
2018-09-07T12:53:11.643Z,85.10
2018-09-07T12:55:39.800Z,85.60
2018-09-07T12:58:07.940Z,85.30
2018-09-07T13:00:36.060Z,85.30
2018-09-07T13:03:04.197Z,85.10
2018-09-07T13:05:36.552Z,85.40
2018-09-07T13:08:04.670Z,85.30
2018-09-07T13:10:32.797Z,85.30
2018-09-07T13:13:00.918Z,85.20
2018-09-07T13:15:29.169Z,86.30
2018-09-07T13:17:57.291Z,86.00
2018-09-07T13:20:25.407Z,85.80
2018-09-07T13:22:53.540Z,85.30
2018-09-07T13:25:28.330Z,85.20
2018-09-07T13:27:56.447Z,85.70
2018-09-07T13:30:24.551Z,85.20
2018-09-07T13:32:52.695Z,85.10
2018-09-07T13:35:20.904Z,84.50
2018-09-07T13:37:49.306Z,83.40
2018-09-07T13:40:17.432Z,82.20
2018-09-07T13:42:46.596Z,82.00
2018-09-07T13:45:14.740Z,82.70
2018-09-07T13:47:43.084Z,81.60
2018-09-07T13:50:11.195Z,80.80
2018-09-07T13:52:39.356Z,80.80
2018-09-07T13:55:07.480Z,79.30
2018-09-07T13:57:35.568Z,80.00
2018-09-07T14:00:03.687Z,79.10
2018-09-07T14:02:31.791Z,79.50
2018-09-07T14:04:59.902Z,79.10
2018-09-07T14:07:29.413Z,79.50
2018-09-07T14:09:57.898Z,79.70
2018-09-07T14:12:26.171Z,80.20
2018-09-07T14:14:54.253Z,78.60
2018-09-07T14:17:22.355Z,78.10
2018-09-07T14:19:50.454Z,77.90
2018-09-07T14:22:19.124Z,77.40
2018-09-07T14:24:47.201Z,77.70
2018-09-07T14:27:15.296Z,77.40
2018-09-07T14:29:43.402Z,78.30
2018-09-07T14:32:11.498Z,77.80
2018-09-07T14:34:39.592Z,78.00
2018-09-07T14:37:07.661Z,78.20
2018-09-07T14:39:35.796Z,78.00
2018-09-07T14:42:03.874Z,77.60
2018-09-07T14:44:31.975Z,76.40
2018-09-07T14:47:00.118Z,76.00
2018-09-07T14:49:28.380Z,77.10
2018-09-07T14:51:56.463Z,76.20
2018-09-07T14:54:24.556Z,74.90
2018-09-07T14:56:52.683Z,73.80
2018-09-07T14:59:20.810Z,73.50
2018-09-07T15:01:48.913Z,73.90
2018-09-07T15:04:17.058Z,74.40
2018-09-07T15:06:45.179Z,74.40
2018-09-07T15:09:13.287Z,73.30
2018-09-07T15:11:41.433Z,73.80
2018-09-07T15:14:09.537Z,73.80
2018-09-07T15:16:37.671Z,73.10
2018-09-07T15:19:05.863Z,72.40
2018-09-07T15:21:33.991Z,73.50
2018-09-07T15:24:02.093Z,70.50
2018-09-07T15:26:30.230Z,71.50
2018-09-07T15:28:58.375Z,72.50
2018-09-07T15:31:26.594Z,71.40
2018-09-07T15:33:54.681Z,71.00
2018-09-07T15:36:22.821Z,69.70
2018-09-07T15:38:50.939Z,69.10
2018-09-07T15:41:19.074Z,69.30
2018-09-07T15:43:47.191Z,68.40
2018-09-07T15:46:15.336Z,68.00
2018-09-07T15:48:43.511Z,63.80
2018-09-07T15:51:11.628Z,63.20
2018-09-07T15:53:39.800Z,62.70
2018-09-07T15:56:07.916Z,61.60
2018-09-07T15:58:36.052Z,62.00
2018-09-07T16:01:04.143Z,62.60
2018-09-07T16:03:32.241Z,62.30
2018-09-07T16:06:00.548Z,62.30
2018-09-07T16:08:28.817Z,62.80
2018-09-07T16:10:57.055Z,63.00
2018-09-07T16:13:25.244Z,62.70
2018-09-07T16:15:53.345Z,63.50
2018-09-07T16:18:21.692Z,64.00
2018-09-07T16:20:49.764Z,63.90
2018-09-07T16:23:17.859Z,63.60
2018-09-07T16:25:46.047Z,63.10
2018-09-07T16:28:14.195Z,63.80
2018-09-07T16:30:42.274Z,64.00
2018-09-07T16:33:10.391Z,63.80
2018-09-07T16:35:38.524Z,63.50
2018-09-07T16:38:07.630Z,64.30
2018-09-07T16:40:35.755Z,65.00
2018-09-07T16:43:03.850Z,64.60
2018-09-07T16:45:31.942Z,65.10
2018-09-07T16:48:00.038Z,65.70
2018-09-07T16:50:28.119Z,65.80
2018-09-07T16:52:56.224Z,65.70
2018-09-07T16:55:24.377Z,66.50
2018-09-07T16:57:52.500Z,66.00
2018-09-07T17:00:20.600Z,66.70
2018-09-07T17:02:48.743Z,67.10
2018-09-07T17:05:16.903Z,66.90
2018-09-07T17:07:45.003Z,66.80
2018-09-07T17:10:13.258Z,67.20
2018-09-07T17:12:41.370Z,67.60
2018-09-07T17:15:09.517Z,67.70
2018-09-07T17:17:37.613Z,67.30
2018-09-07T17:20:05.783Z,68.00
2018-09-07T17:22:34.028Z,68.60
2018-09-07T17:25:02.203Z,67.60
2018-09-07T17:27:30.402Z,68.00
2018-09-07T17:29:58.539Z,68.20
2018-09-07T17:32:26.734Z,68.50
2018-09-07T17:34:54.849Z,69.20
2018-09-07T17:37:22.964Z,69.30
2018-09-07T17:39:51.117Z,69.80
2018-09-07T17:42:19.243Z,68.90
2018-09-07T17:44:47.363Z,69.60
2018-09-07T17:47:21.960Z,69.60
2018-09-07T17:49:50.107Z,69.50
2018-09-07T17:52:18.231Z,69.80
2018-09-07T17:54:46.340Z,70.20
2018-09-07T17:57:14.447Z,70.20
2018-09-07T17:59:42.544Z,70.30
2018-09-07T18:02:10.643Z,71.20
2018-09-07T18:04:38.785Z,71.30
2018-09-07T18:07:06.909Z,70.50
2018-09-07T18:09:35.016Z,70.60
2018-09-07T18:12:09.820Z,70.90
2018-09-07T18:14:37.910Z,71.60
2018-09-07T18:17:06.093Z,71.80
2018-09-07T18:19:34.256Z,71.90
2018-09-07T18:22:02.461Z,71.80
2018-09-07T18:24:30.536Z,71.80
2018-09-07T18:26:58.712Z,72.70
2018-09-07T18:29:27.088Z,72.00
2018-09-07T18:31:55.519Z,71.90
2018-09-07T18:34:23.602Z,72.40
2018-09-07T18:36:51.730Z,72.70
2018-09-07T18:39:19.901Z,73.90
2018-09-07T18:41:47.960Z,73.30
2018-09-07T18:44:16.096Z,73.30
2018-09-07T18:46:44.186Z,73.00
2018-09-07T18:49:12.285Z,73.40
2018-09-07T18:51:40.468Z,73.70
2018-09-07T18:54:08.709Z,74.30
2018-09-07T18:56:36.836Z,75.40
2018-09-07T18:59:05.037Z,74.60
2018-09-07T19:01:33.155Z,74.20
2018-09-07T19:04:01.280Z,74.60
2018-09-07T19:09:04.515Z,76.80
2018-09-07T19:11:32.608Z,77.20
2018-09-07T19:14:00.748Z,77.20
2018-09-07T19:16:28.827Z,78.70
2018-09-07T19:18:56.915Z,78.60
2018-09-07T19:21:25.010Z,79.30
2018-09-07T19:23:53.105Z,79.50
2018-09-07T19:26:21.320Z,79.90
2018-09-07T19:28:49.418Z,79.90
2018-09-07T19:31:17.905Z,79.30
2018-09-07T19:33:46.050Z,79.80
2018-09-07T19:36:14.143Z,77.90
2018-09-07T19:38:42.240Z,79.60
2018-09-07T19:41:10.376Z,80.30
2018-09-07T19:43:38.472Z,80.50
2018-09-07T19:46:07.259Z,81.00
2018-09-07T19:48:35.467Z,81.40
2018-09-07T19:51:03.938Z,81.30
2018-09-07T19:53:32.021Z,81.20
2018-09-07T19:56:00.115Z,81.60
2018-09-07T19:58:34.608Z,81.20
2018-09-07T20:01:02.883Z,81.00
2018-09-07T20:03:30.943Z,81.60
2018-09-07T20:05:59.450Z,82.70
2018-09-07T20:08:27.615Z,82.50
2018-09-07T20:10:55.927Z,82.70
2018-09-07T20:13:24.046Z,82.70
2018-09-07T20:15:52.307Z,83.10
2018-09-07T20:18:20.479Z,82.70
2018-09-07T20:20:48.656Z,82.50
2018-09-07T20:23:16.788Z,82.80
2018-09-07T20:25:44.927Z,83.40
2018-09-07T20:28:13.111Z,83.30
2018-09-07T20:30:41.262Z,82.80
2018-09-07T20:33:09.568Z,83.40
2018-09-07T20:35:37.839Z,83.70
2018-09-07T20:38:05.956Z,83.80
2018-09-07T20:40:34.076Z,83.80
2018-09-07T20:43:02.469Z,84.20
2018-09-07T20:45:30.585Z,84.30
2018-09-07T20:47:58.809Z,84.90
2018-09-07T20:50:26.964Z,85.20
2018-09-07T20:52:55.095Z,85.80
2018-09-07T20:55:23.272Z,86.20
2018-09-07T20:57:51.392Z,85.70
2018-09-07T21:00:20.620Z,85.60
2018-09-07T21:02:48.880Z,85.60
2018-09-07T21:05:17.288Z,86.40
2018-09-07T21:07:45.391Z,86.00
2018-09-07T21:10:13.531Z,86.20
2018-09-07T21:12:41.641Z,85.90
2018-09-07T21:15:09.884Z,86.10
2018-09-07T21:17:38.120Z,85.90
2018-09-07T21:20:06.248Z,86.00
2018-09-07T21:22:34.360Z,85.80
2018-09-07T21:25:02.525Z,86.10
2018-09-07T21:27:30.643Z,86.20
2018-09-07T21:29:58.758Z,86.40
2018-09-07T21:32:26.861Z,86.70
2018-09-07T21:34:55.042Z,86.70
2018-09-07T21:37:23.208Z,86.50
2018-09-07T21:39:51.323Z,86.50
2018-09-07T21:42:19.441Z,86.80
2018-09-07T21:44:47.556Z,86.70
2018-09-07T21:47:15.772Z,86.80
2018-09-07T21:49:43.896Z,87.20
2018-09-07T21:52:12.008Z,87.60
2018-09-07T21:54:40.131Z,87.40
2018-09-07T21:57:08.270Z,87.60
2018-09-07T21:59:36.365Z,87.50
2018-09-07T22:02:04.512Z,87.60
2018-09-07T22:04:32.612Z,87.40
2018-09-07T22:07:06.296Z,88.00
2018-09-07T22:09:35.385Z,88.20
2018-09-07T22:12:04.773Z,88.30
2018-09-07T22:14:32.912Z,88.70
2018-09-07T22:17:01.145Z,88.80
2018-09-07T22:19:29.364Z,88.90
2018-09-07T22:21:57.475Z,88.80
2018-09-07T22:24:25.577Z,88.80
2018-09-07T22:26:53.809Z,88.40
2018-09-07T22:29:21.942Z,88.40
2018-09-07T22:31:50.177Z,88.10
2018-09-07T22:34:18.307Z,89.00
2018-09-07T22:36:46.432Z,89.00
2018-09-07T22:39:14.553Z,89.00
2018-09-07T22:41:42.658Z,89.10
2018-09-07T22:44:10.791Z,89.20
2018-09-07T22:46:39.809Z,89.10
2018-09-07T22:49:07.927Z,88.80
2018-09-07T22:51:36.610Z,88.90
2018-09-07T22:54:04.742Z,89.10
2018-09-07T22:56:33.075Z,89.00
2018-09-07T22:59:01.208Z,89.00
2018-09-07T23:01:29.321Z,89.60
2018-09-07T23:03:57.443Z,89.10
2018-09-07T23:06:31.116Z,89.20
2018-09-07T23:08:59.326Z,89.30
2018-09-07T23:11:27.429Z,89.00
2018-09-07T23:13:55.591Z,89.00
2018-09-07T23:16:23.709Z,89.40
2018-09-07T23:18:51.805Z,89.40
2018-09-07T23:21:19.939Z,89.70
2018-09-07T23:23:48.038Z,89.50
2018-09-07T23:26:16.181Z,89.60
2018-09-07T23:28:45.215Z,89.60
2018-09-07T23:31:13.328Z,89.60
2018-09-07T23:33:41.615Z,89.60
2018-09-07T23:36:09.738Z,89.60
2018-09-07T23:38:37.841Z,89.50
2018-09-07T23:41:06.123Z,89.30
2018-09-07T23:43:34.247Z,89.40
2018-09-07T23:46:02.364Z,89.70
2018-09-07T23:48:30.469Z,89.50
2018-09-07T23:50:58.603Z,89.60
2018-09-07T23:53:26.724Z,90.30
2018-09-07T23:55:54.858Z,90.00
2018-09-07T23:58:22.983Z,90.30
